Time;durP1;ratioP1;P1;durP2;ratioP2;P2;SDS_P1;SDS_P2;PMS_P1;PMS_P2;Temp;Humidity;BMP_temperature;BMP_pressure;BME280_temperature;BME280_humidity;BME280_pressure;Samples;Min_cycle;Max_cycle;Signal;HPM_P1;HPM_P2
2021/05/02 00:00:53;;;;;;;24.07;19.07;;;;;;;9.14;69.87;99604.80;128245;1098;100700;-82
2021/05/02 00:03:40;;;;;;;24.83;20.03;;;;;;;9.15;70.21;99600.44;128020;1098;101131;-84
2021/05/02 00:06:27;;;;;;;26.27;21.43;;;;;;;9.13;70.09;99604.86;128030;1098;100755;-84
2021/05/02 00:09:14;;;;;;;27.13;21.38;;;;;;;9.08;70.24;99590.27;128027;1099;101651;-82
2021/05/02 00:12:01;;;;;;;25.77;19.93;;;;;;;9.04;70.11;99587.84;127989;1098;101071;-82
2021/05/02 00:14:48;;;;;;;23.40;18.07;;;;;;;9.00;70.15;99579.31;128054;1100;101106;-82
2021/05/02 00:17:40;;;;;;;22.80;19.20;;;;;;;8.99;70.76;99569.81;128037;1098;100851;-82
2021/05/02 00:20:28;;;;;;;23.93;18.97;;;;;;;8.98;70.44;99568.12;128046;1098;100735;-82
2021/05/02 00:23:15;;;;;;;23.73;18.20;;;;;;;8.96;70.30;99563.84;128026;1098;101048;-82
2021/05/02 00:26:03;;;;;;;21.43;17.50;;;;;;;8.94;70.37;99563.91;127999;1098;101473;-82
2021/05/02 00:28:52;;;;;;;22.03;16.80;;;;;;;8.94;70.84;99563.06;128038;1098;100709;-82
2021/05/02 00:31:43;;;;;;;24.87;18.97;;;;;;;8.92;70.52;99570.08;128037;1098;101140;-82
2021/05/02 00:34:30;;;;;;;21.50;17.53;;;;;;;8.91;70.68;99577.03;128226;1098;101091;-82
2021/05/02 00:37:18;;;;;;;21.50;16.70;;;;;;;8.88;70.47;99566.73;128042;1098;100733;-82
2021/05/02 00:40:11;;;;;;;21.77;16.77;;;;;;;8.88;70.64;99568.49;128204;1098;100769;-83
2021/05/02 00:43:02;;;;;;;22.30;17.80;;;;;;;8.88;71.12;99569.34;128055;1098;100731;-83
2021/05/02 00:46:01;;;;;;;21.93;16.80;;;;;;;8.89;71.04;99568.44;128248;1098;101154;-83
2021/05/02 00:48:56;;;;;;;21.10;16.60;;;;;;;8.89;70.92;99571.03;128234;1098;101088;-84
2021/05/02 00:51:54;;;;;;;22.33;17.67;;;;;;;8.92;71.08;99565.72;128255;1098;101148;-82
2021/05/02 00:54:47;;;;;;;21.63;16.97;;;;;;;8.95;70.80;99562.16;128024;1098;101107;-82
2021/05/02 00:57:54;;;;;;;22.80;17.67;;;;;;;8.95;71.03;99560.41;128023;1098;100785;-82
2021/05/02 01:00:42;;;;;;;20.97;15.87;;;;;;;8.94;70.59;99553.50;128251;1098;100954;-82
2021/05/02 01:03:33;;;;;;;23.07;17.63;;;;;;;8.94;71.11;99543.10;128041;1098;101235;-82
2021/05/02 01:06:24;;;;;;;21.67;16.60;;;;;;;8.94;71.17;99535.30;128169;1098;101392;-82
2021/05/02 01:09:15;;;;;;;18.63;15.33;;;;;;;8.91;71.06;99535.42;128230;1098;100857;-82
2021/05/02 01:12:03;;;;;;;18.77;15.37;;;;;;;8.91;71.01;99532.81;128199;1098;101166;-82
2021/05/02 01:14:54;;;;;;;21.60;16.48;;;;;;;8.90;71.01;99541.53;128007;1098;100834;-82
2021/05/02 01:17:48;;;;;;;19.53;14.77;;;;;;;8.90;70.71;99551.92;128279;1098;100780;-82
2021/05/02 01:20:41;;;;;;;19.03;14.63;;;;;;;8.91;70.80;99566.63;128220;1098;100831;-82
2021/05/02 01:23:30;;;;;;;18.43;15.13;;;;;;;8.91;71.19;99565.78;128010;1098;101244;-83
2021/05/02 01:26:17;;;;;;;18.50;14.87;;;;;;;8.89;70.97;99541.58;128228;1098;100821;-82
2021/05/02 01:29:04;;;;;;;18.97;14.53;;;;;;;8.90;70.96;99532.88;128050;1098;100689;-82
2021/05/02 01:31:50;;;;;;;19.47;15.10;;;;;;;8.92;71.05;99542.31;128050;1098;100779;-84
2021/05/02 01:34:38;;;;;;;17.65;14.85;;;;;;;8.94;71.21;99530.10;128161;1098;101798;-83
2021/05/02 01:37:25;;;;;;;21.63;15.18;;;;;;;8.96;71.12;99512.68;127991;1099;100729;-83
2021/05/02 01:40:12;;;;;;;19.78;15.73;;;;;;;8.96;70.83;99497.08;128279;1098;100942;-82
2021/05/02 01:42:58;;;;;;;19.30;15.50;;;;;;;8.95;71.15;99500.59;128257;1098;101223;-82
2021/05/02 01:45:45;;;;;;;17.28;14.30;;;;;;;8.94;70.81;99492.84;128245;1098;100731;-82
2021/05/02 01:48:36;;;;;;;20.50;15.83;;;;;;;8.87;71.20;99489.64;128031;1098;101472;-83
2021/05/02 01:51:23;;;;;;;19.00;15.17;;;;;;;8.81;71.02;99484.67;128014;1098;100854;-82
2021/05/02 01:54:13;;;;;;;;;;;;;;;8.77;71.14;99473.52;128177;1098;100708;-82
2021/05/02 01:57:00;;;;;;;20.57;15.87;;;;;;;8.72;71.08;99472.00;128238;1098;101015;-82
2021/05/02 01:59:49;;;;;;;20.40;15.60;;;;;;;8.66;71.17;99464.44;128022;1098;100766;-82
2021/05/02 02:02:38;;;;;;;19.03;16.13;;;;;;;8.57;71.61;99457.80;128214;1098;101998;-82
2021/05/02 02:05:26;;;;;;;18.83;14.93;;;;;;;8.52;71.42;99454.53;128207;1098;100863;-82
2021/05/02 02:08:19;;;;;;;18.43;15.27;;;;;;;8.44;71.59;99452.23;128041;1098;100993;-82
2021/05/02 02:11:06;;;;;;;17.67;14.80;;;;;;;8.40;71.42;99461.01;128010;1098;100983;-83
2021/05/02 02:13:53;;;;;;;;;;;;;;;8.36;71.89;99464.63;128288;1098;100716;-83
2021/05/02 02:16:43;;;;;;;19.47;15.67;;;;;;;8.33;72.22;99456.91;128044;1099;101432;-83
2021/05/02 02:19:31;;;;;;;19.97;16.03;;;;;;;8.32;72.24;99446.58;128172;1098;100855;-83
2021/05/02 02:22:19;;;;;;;18.23;15.05;;;;;;;8.31;72.23;99430.14;128155;1098;101082;-83
2021/05/02 02:25:08;;;;;;;20.73;16.90;;;;;;;8.30;72.29;99417.21;128252;1098;100771;-83
2021/05/02 02:27:57;;;;;;;22.30;16.17;;;;;;;8.27;72.30;99417.33;127999;1098;100743;-83
2021/05/02 02:30:46;;;;;;;19.33;15.33;;;;;;;8.25;72.53;99414.75;128171;1098;101507;-83
2021/05/02 02:33:34;;;;;;;19.50;15.30;;;;;;;8.21;72.29;99407.98;128215;1098;102114;-83
2021/05/02 02:36:23;;;;;;;;;;;;;;;8.20;72.49;99406.28;128281;1098;101068;-83
2021/05/02 02:39:10;;;;;;;19.50;15.93;;;;;;;8.18;72.69;99402.91;128053;1099;100772;-83
2021/05/02 02:41:59;;;;;;;18.37;15.67;;;;;;;8.17;72.70;99391.66;128038;1098;100737;-82
2021/05/02 02:44:53;;;;;;;19.80;15.27;;;;;;;8.18;72.59;99389.91;128276;1098;101863;-83
2021/05/02 02:47:46;;;;;;;20.23;15.90;;;;;;;8.19;73.00;99389.02;127986;1098;101212;-83
2021/05/02 02:50:33;;;;;;;21.10;16.23;;;;;;;8.21;72.85;99376.81;128073;1098;100853;-83
2021/05/02 02:53:21;;;;;;;20.50;17.45;;;;;;;8.21;72.92;99374.21;128266;1098;100996;-83
2021/05/02 02:56:13;;;;;;;19.63;16.37;;;;;;;8.22;73.20;99383.70;128223;1098;100769;-83
2021/05/02 02:59:21;;;;;;;21.73;16.57;;;;;;;8.23;73.02;99372.41;128057;1098;101822;-83
2021/05/02 03:02:08;;;;;;;22.55;17.48;;;;;;;8.24;73.12;99361.11;128030;1098;101001;-83
2021/05/02 03:04:56;;;;;;;20.88;17.75;;;;;;;8.22;72.87;99347.33;128234;1098;100814;-83
2021/05/02 03:07:46;;;;;;;23.70;18.47;;;;;;;8.17;73.48;99344.91;128201;1098;100781;-83
2021/05/02 03:10:34;;;;;;;20.13;16.73;;;;;;;8.14;72.87;99344.19;128040;1098;100740;-83
2021/05/02 03:13:20;;;;;;;22.27;16.70;;;;;;;8.12;73.55;99343.40;128258;1098;101833;-83
2021/05/02 03:16:07;;;;;;;25.33;18.90;;;;;;;8.09;73.51;99335.72;128214;1098;100840;-82
2021/05/02 03:19:26;;;;;;;22.58;17.50;;;;;;;8.09;73.82;99333.13;128035;1098;100931;-82
2021/05/02 03:22:49;;;;;;;21.93;17.70;;;;;;;8.08;73.52;99331.44;128012;1098;100945;-83
2021/05/02 03:25:41;;;;;;;23.87;19.67;;;;;;;8.07;73.51;99333.16;127908;1101;101053;-82
2021/05/02 03:28:56;;;;;;;26.10;19.47;;;;;;;8.07;73.75;99316.73;127894;1101;101134;-82
2021/05/02 03:31:48;;;;;;;22.17;17.20;;;;;;;8.08;73.80;99297.67;127871;1101;100843;-82
2021/05/02 03:34:40;;;;;;;21.20;17.23;;;;;;;8.09;73.80;99309.75;127909;1101;101242;-82
2021/05/02 03:37:32;;;;;;;20.63;17.20;;;;;;;8.10;73.44;99299.30;127896;1101;100828;-82
2021/05/02 03:40:19;;;;;;;23.00;17.77;;;;;;;8.13;73.95;99311.33;127924;1101;100659;-82
2021/05/02 03:43:06;;;;;;;20.47;18.00;;;;;;;8.17;73.71;99302.52;127957;1101;101842;-82
2021/05/02 03:45:53;;;;;;;22.17;17.73;;;;;;;8.19;74.29;99277.32;127901;1101;100853;-82
2021/05/02 03:48:40;;;;;;;21.58;17.10;;;;;;;8.20;73.88;99279.02;127920;1101;101364;-82
2021/05/02 03:51:29;;;;;;;23.40;18.45;;;;;;;8.21;73.92;99279.86;127886;1101;100909;-82
2021/05/02 03:54:16;;;;;;;25.40;18.50;;;;;;;8.22;73.60;99272.00;127684;1101;100699;-82
2021/05/02 03:57:03;;;;;;;22.83;17.73;;;;;;;8.24;73.90;99277.98;127874;1101;101577;-83
2021/05/02 03:59:50;;;;;;;21.50;18.13;;;;;;;8.23;73.86;99276.30;127846;1101;101097;-82
2021/05/02 04:02:36;;;;;;;23.50;17.63;;;;;;;8.24;74.16;99269.34;128221;1098;100828;-82
2021/05/02 04:05:23;;;;;;;20.20;16.57;;;;;;;8.25;73.92;99277.08;128233;1098;100796;-82
2021/05/02 04:08:10;;;;;;;22.33;16.60;;;;;;;8.27;74.03;99280.49;128208;1098;101072;-84
2021/05/02 04:10:57;;;;;;;18.93;16.10;;;;;;;8.27;73.79;99283.09;128242;1098;101402;-84
2021/05/02 04:13:43;;;;;;;19.60;15.80;;;;;;;8.28;74.24;99276.98;128003;1098;100775;-84
2021/05/02 04:16:30;;;;;;;20.10;16.40;;;;;;;8.29;74.07;99272.64;128258;1098;101053;-82
2021/05/02 04:19:17;;;;;;;19.05;16.30;;;;;;;8.31;73.89;99286.41;128061;1098;100825;-82
2021/05/02 04:22:07;;;;;;;21.53;16.77;;;;;;;8.30;74.00;99285.56;128243;1098;100950;-84
2021/05/02 04:24:53;;;;;;;19.70;15.60;;;;;;;8.31;74.34;99297.65;128045;1099;101817;-84
2021/05/02 04:27:40;;;;;;;19.47;15.63;;;;;;;8.33;74.08;99289.80;128193;1098;101842;-84
2021/05/02 04:30:26;;;;;;;18.93;16.17;;;;;;;8.34;74.39;99268.98;128035;1099;100945;-82
2021/05/02 04:33:45;;;;;;;18.93;15.30;;;;;;;8.36;74.24;99258.53;128204;1098;100797;-82
2021/05/02 04:37:02;;;;;;;;;;;;;;;;;;;;;
2021/05/02 04:41:09;;;;;;;20.80;15.17;;;;;;;8.45;74.42;99253.83;127571;1104;101732;-83
2021/05/02 04:44:45;;;;;;;19.13;15.20;;;;;;;8.50;74.14;99238.05;127505;1105;100899;-84
2021/05/02 04:47:57;;;;;;;18.23;14.60;;;;;;;8.56;73.94;99227.41;127577;1104;100866;-84
2021/05/02 04:50:43;;;;;;;18.07;15.37;;;;;;;8.61;73.98;99224.61;127580;1104;100907;-84
2021/05/02 04:53:31;;;;;;;18.97;15.70;;;;;;;8.62;74.14;99210.73;127614;1104;101000;-82
2021/05/02 04:56:18;;;;;;;19.13;15.90;;;;;;;8.62;74.01;99206.38;127571;1104;102494;-82
2021/05/02 04:59:06;;;;;;;18.23;15.13;;;;;;;8.65;74.15;99210.61;127543;1104;101015;-82
2021/05/02 05:01:52;;;;;;;20.07;15.77;;;;;;;8.70;73.88;99216.45;127561;1104;100825;-82
2021/05/02 05:04:40;;;;;;;18.60;15.40;;;;;;;8.71;74.02;99223.34;127561;1104;100929;-82
2021/05/02 05:07:26;;;;;;;22.20;16.53;;;;;;;8.70;74.49;99226.85;127574;1104;101219;-83
2021/05/02 05:10:13;;;;;;;18.00;14.97;;;;;;;8.70;73.89;99232.89;127598;1104;101214;-82
2021/05/02 05:13:00;;;;;;;16.93;14.73;;;;;;;8.72;73.90;99209.44;127594;1101;100821;-82
2021/05/02 05:15:46;;;;;;;17.53;14.70;;;;;;;8.79;73.96;99185.70;127924;1101;100793;-82
2021/05/02 05:18:33;;;;;;;19.13;15.37;;;;;;;8.89;73.85;99178.38;128182;1098;100992;-85
2021/05/02 05:21:20;;;;;;;16.70;14.05;;;;;;;8.97;73.77;99181.48;128048;1098;101131;-83
2021/05/02 05:24:07;;;;;;;18.33;15.07;;;;;;;9.06;73.68;99175.06;128029;1098;101944;-83
2021/05/02 05:26:53;;;;;;;16.20;13.90;;;;;;;9.12;73.66;99173.95;128014;1098;100711;-82
2021/05/02 05:29:40;;;;;;;16.58;13.98;;;;;;;9.16;73.30;99171.17;128237;1098;100701;-84
2021/05/02 05:32:27;;;;;;;17.60;14.23;;;;;;;9.20;73.29;99171.88;128238;1098;101077;-82
2021/05/02 05:35:14;;;;;;;17.93;15.60;;;;;;;9.24;73.22;99168.22;128283;1098;100696;-84
2021/05/02 05:38:00;;;;;;;18.63;14.80;;;;;;;9.26;73.44;99168.99;128234;1098;101647;-82
2021/05/02 05:40:47;;;;;;;18.77;16.23;;;;;;;9.27;73.30;99168.08;128118;1098;101140;-83
2021/05/02 05:43:33;;;;;;;17.00;14.60;;;;;;;9.28;73.18;99160.20;128238;1098;101033;-82
2021/05/02 05:46:20;;;;;;;18.38;15.05;;;;;;;9.29;73.38;99151.48;128237;1098;101077;-82
2021/05/02 05:49:07;;;;;;;17.30;14.73;;;;;;;9.30;72.81;99149.73;128219;1098;100741;-82
2021/05/02 05:51:54;;;;;;;18.53;15.23;;;;;;;9.30;72.89;99142.77;128036;1098;101434;-82
2021/05/02 05:54:41;;;;;;;17.63;14.55;;;;;;;9.31;73.35;99138.41;128019;1098;100920;-82
2021/05/02 05:57:27;;;;;;;20.10;15.17;;;;;;;9.31;73.01;99134.05;128269;1098;101150;-82
2021/05/02 06:00:15;;;;;;;19.18;15.53;;;;;;;9.29;73.48;99132.42;128250;1098;101113;-82
2021/05/02 06:03:03;;;;;;;17.30;14.63;;;;;;;9.26;73.02;99120.41;128057;1100;100745;-84
2021/05/02 06:05:50;;;;;;;18.25;15.30;;;;;;;9.27;73.30;99123.85;128031;1098;101986;-82
2021/05/02 06:08:36;;;;;;;17.43;14.20;;;;;;;9.29;73.10;99116.81;128006;1099;100731;-84
2021/05/02 06:11:23;;;;;;;16.87;14.10;;;;;;;9.30;73.21;99113.30;128216;1098;101116;-84
2021/05/02 06:14:14;;;;;;;18.57;15.53;;;;;;;9.32;73.02;99106.27;128028;1098;100719;-84
2021/05/02 06:17:00;;;;;;;;;;;;;;;9.33;72.96;99090.58;127979;1100;101144;-83
2021/05/02 06:19:47;;;;;;;20.93;15.60;;;;;;;9.37;73.06;99084.34;128024;1098;100915;-83
2021/05/02 06:22:33;;;;;;;17.70;13.80;;;;;;;9.42;72.94;99078.92;127995;1098;100987;-84
2021/05/02 06:25:20;;;;;;;19.67;14.77;;;;;;;9.47;73.12;99071.74;128217;1098;100691;-82
2021/05/02 06:28:07;;;;;;;19.77;14.37;;;;;;;9.53;73.05;99049.81;128242;1098;101180;-82
2021/05/02 06:30:53;;;;;;;18.83;14.43;;;;;;;9.61;72.89;99043.31;128254;1098;100981;-83
2021/05/02 06:33:40;;;;;;;18.93;14.68;;;;;;;9.69;72.95;99041.20;128049;1098;101294;-84
2021/05/02 06:36:27;;;;;;;16.60;13.85;;;;;;;9.74;72.34;99033.17;128018;1099;100813;-84
2021/05/02 06:39:14;;;;;;;17.70;15.05;;;;;;;9.80;72.51;99026.81;128237;1098;100821;-82
2021/05/02 06:42:01;;;;;;;16.93;14.80;;;;;;;9.85;72.46;99024.82;128252;1098;100686;-84
2021/05/02 06:44:50;;;;;;;16.87;14.03;;;;;;;9.88;72.34;99001.27;128055;1098;101345;-82
2021/05/02 06:47:39;;;;;;;16.63;14.10;;;;;;;9.89;72.12;98995.13;128013;1098;102383;-85
2021/05/02 06:50:26;;;;;;;19.13;14.43;;;;;;;9.92;71.95;98989.77;128006;1098;100821;-82
2021/05/02 06:53:13;;;;;;;15.78;13.95;;;;;;;9.92;71.91;98974.98;128252;1098;100107;-82
2021/05/02 06:56:00;;;;;;;16.00;13.18;;;;;;;9.91;71.83;98982.88;128126;1098;100817;-84
2021/05/02 06:58:48;;;;;;;18.60;13.93;;;;;;;9.88;71.62;98972.61;128024;1098;100877;-84
2021/05/02 07:01:34;;;;;;;16.97;14.07;;;;;;;9.88;71.99;98951.78;128190;1098;101542;-84
2021/05/02 07:04:21;;;;;;;17.87;13.60;;;;;;;9.90;71.71;98939.52;128143;1098;100808;-84
2021/05/02 07:07:08;;;;;;;16.17;13.53;;;;;;;9.91;71.63;98941.20;128148;1098;100774;-82
2021/05/02 07:09:56;;;;;;;16.00;13.43;;;;;;;9.90;71.80;98935.16;128049;1098;100726;-84
2021/05/02 07:12:43;;;;;;;15.70;13.98;;;;;;;9.92;71.85;98933.31;128221;1098;101206;-82
2021/05/02 07:15:30;;;;;;;17.27;13.83;;;;;;;9.93;71.70;98923.73;128205;1098;101078;-84
2021/05/02 07:18:17;;;;;;;15.97;13.40;;;;;;;9.92;72.08;98925.50;128184;1098;101162;-82
2021/05/02 07:21:05;;;;;;;16.38;12.70;;;;;;;9.94;71.88;98915.00;128108;1098;100649;-82
2021/05/02 07:23:52;;;;;;;15.30;13.03;;;;;;;9.94;71.77;98902.82;128062;1098;100728;-84
2021/05/02 07:26:39;;;;;;;17.97;13.30;;;;;;;9.95;71.84;98885.43;128240;1098;100970;-84
2021/05/02 07:29:26;;;;;;;14.57;12.77;;;;;;;9.93;71.66;98869.05;128047;1098;101920;-84
2021/05/02 07:32:13;;;;;;;15.83;13.08;;;;;;;9.92;71.64;98859.55;128238;1098;100726;-84
2021/05/02 07:35:00;;;;;;;;;;;;;;;9.92;71.36;98843.92;128072;1098;100710;-82
2021/05/02 07:37:46;;;;;;;17.13;13.67;;;;;;;9.91;71.51;98837.88;128252;1098;100759;-82
2021/05/02 07:40:34;;;;;;;14.53;12.93;;;;;;;9.93;71.66;98835.19;128048;1098;101180;-82
2021/05/02 07:43:21;;;;;;;16.07;12.97;;;;;;;9.94;71.77;98842.08;128037;1098;100905;-82
2021/05/02 07:46:07;;;;;;;15.87;13.93;;;;;;;9.94;72.14;98824.69;128011;1098;100781;-82
2021/05/02 07:48:54;;;;;;;15.38;13.43;;;;;;;9.93;72.19;98820.41;128240;1098;100868;-82
2021/05/02 07:51:41;;;;;;;16.90;14.73;;;;;;;9.93;72.19;98815.19;128020;1100;100722;-82
2021/05/02 07:54:29;;;;;;;17.53;13.93;;;;;;;9.91;72.60;98800.58;128031;1098;100820;-82
2021/05/02 07:57:16;;;;;;;15.90;14.00;;;;;;;9.91;72.65;98800.58;128047;1098;100833;-83
2021/05/02 08:00:05;;;;;;;16.23;14.23;;;;;;;9.90;72.71;98799.73;128218;1098;100647;-82
2021/05/02 08:02:56;;;;;;;16.47;14.20;;;;;;;9.89;72.78;98797.21;128051;1098;101163;-84
2021/05/02 08:05:43;;;;;;;17.60;13.97;;;;;;;9.86;72.85;98781.72;128021;1098;101164;-84
2021/05/02 08:08:29;;;;;;;20.33;14.77;;;;;;;9.81;72.76;98783.73;128245;1098;100750;-85
2021/05/02 08:11:16;;;;;;;16.17;13.53;;;;;;;9.79;73.00;98777.77;128012;1098;101463;-84
2021/05/02 08:14:04;;;;;;;17.67;14.47;;;;;;;9.78;73.08;98770.88;128182;1098;100843;-83
2021/05/02 08:16:50;;;;;;;16.93;14.68;;;;;;;9.73;73.22;98775.49;128176;1098;100784;-83
2021/05/02 08:19:38;;;;;;;18.10;14.77;;;;;;;9.68;73.65;98763.53;128055;1099;100768;-82
2021/05/02 08:22:24;;;;;;;16.90;15.10;;;;;;;9.66;73.96;98752.36;128075;1098;100691;-83
2021/05/02 08:25:11;;;;;;;17.10;15.27;;;;;;;9.64;74.01;98746.40;128161;1098;101416;-85
2021/05/02 08:27:58;;;;;;;18.63;15.73;;;;;;;9.60;74.26;98734.47;128139;1098;101234;-83
2021/05/02 08:30:45;;;;;;;17.87;15.00;;;;;;;9.60;74.47;98737.08;128260;1098;100985;-84
2021/05/02 08:33:31;;;;;;;19.60;16.07;;;;;;;9.60;74.78;98713.65;128132;1098;101024;-85
2021/05/02 08:36:17;;;;;;;22.10;16.60;;;;;;;9.59;74.96;98716.34;128075;1098;100912;-84
2021/05/02 08:39:05;;;;;;;19.63;15.85;;;;;;;9.57;74.91;98724.23;128196;1098;100841;-84
2021/05/02 08:41:51;;;;;;;18.80;16.80;;;;;;;9.56;75.63;98722.55;128202;1098;100829;-84
2021/05/02 08:44:40;;;;;;;18.60;16.63;;;;;;;9.53;75.39;98722.71;128035;1098;101050;-84
2021/05/02 08:47:34;;;;;;;19.60;16.57;;;;;;;9.51;76.17;98705.47;128009;1099;100766;-84
2021/05/02 08:50:21;;;;;;;21.30;16.50;;;;;;;9.49;75.44;98708.16;128073;1098;100742;-84
2021/05/02 08:53:08;;;;;;;18.57;16.47;;;;;;;9.48;75.70;98703.03;128251;1098;101891;-85
2021/05/02 08:55:55;;;;;;;19.43;16.93;;;;;;;9.47;75.86;98681.38;128232;1098;100788;-83
2021/05/02 08:58:42;;;;;;;;;;;;;;;9.44;76.32;98697.16;128141;1098;100663;-85
2021/05/02 09:01:31;;;;;;;20.50;16.97;;;;;;;9.42;76.35;98680.78;128054;1098;101121;-84
2021/05/02 09:04:18;;;;;;;20.47;16.73;;;;;;;9.43;76.55;98668.61;128048;1099;101025;-84
2021/05/02 09:07:14;;;;;;;19.53;16.20;;;;;;;9.44;76.76;98671.13;128037;1098;101072;-84
2021/05/02 09:10:02;;;;;;;19.70;16.23;;;;;;;9.46;76.91;98679.69;128205;1098;100897;-82
2021/05/02 09:13:04;;;;;;;18.50;15.87;;;;;;;9.46;76.40;98704.88;128238;1098;100803;-84
2021/05/02 09:16:06;;;;;;;19.53;17.47;;;;;;;9.42;76.74;98693.79;128040;1099;100962;-84
2021/05/02 09:19:00;;;;;;;20.50;17.63;;;;;;;9.37;77.42;98669.78;128248;1098;100753;-83
2021/05/02 09:21:47;;;;;;;24.20;18.53;;;;;;;9.34;77.68;98685.56;128259;1098;101456;-84
2021/05/02 09:24:34;;;;;;;20.63;18.37;;;;;;;9.29;77.85;98682.33;128036;1098;101421;-84
2021/05/02 09:27:22;;;;;;;22.73;19.80;;;;;;;9.22;78.17;98686.18;128270;1098;100774;-83
2021/05/02 09:30:13;;;;;;;23.67;20.03;;;;;;;9.16;79.13;98686.50;128149;1098;101110;-82
2021/05/02 09:33:00;;;;;;;24.60;20.47;;;;;;;9.09;78.49;98659.95;128105;1098;101095;-84
2021/05/02 09:35:50;;;;;;;22.97;19.93;;;;;;;9.05;78.80;98658.44;128213;1098;100881;-85
2021/05/02 09:38:38;;;;;;;25.53;20.73;;;;;;;9.03;79.28;98636.87;128234;1098;101205;-85
2021/05/02 09:41:24;;;;;;;25.00;21.77;;;;;;;9.02;79.74;98640.39;128040;1098;100718;-84
2021/05/02 09:44:10;;;;;;;24.67;20.43;;;;;;;9.00;79.19;98619.67;128065;1098;101128;-84
2021/05/02 09:47:26;;;;;;;32.53;24.25;;;;;;;9.02;79.87;98616.98;128272;1098;100740;-84
2021/05/02 09:50:18;;;;;;;27.13;21.60;;;;;;;9.02;79.94;98615.23;128026;1099;100797;-85
2021/05/02 09:53:07;;;;;;;24.70;21.60;;;;;;;9.02;79.75;98603.98;128228;1098;100753;-85
2021/05/02 09:55:54;;;;;;;23.23;19.80;;;;;;;9.03;79.89;98588.30;128242;1098;100828;-84
2021/05/02 09:58:41;;;;;;;29.83;20.13;;;;;;;9.02;79.70;98571.02;128210;1098;100837;-85
2021/05/02 10:01:28;;;;;;;22.23;19.43;;;;;;;9.07;79.95;98565.57;128283;1098;100718;-85
2021/05/02 10:04:16;;;;;;;24.10;20.78;;;;;;;9.11;79.75;98558.44;128044;1098;100836;-85
2021/05/02 10:07:10;;;;;;;22.07;19.13;;;;;;;9.15;79.54;98533.94;128004;1098;100749;-84
2021/05/02 10:09:57;;;;;;;25.07;20.67;;;;;;;9.21;80.15;98533.63;128252;1098;100786;-84
2021/05/02 10:12:55;;;;;;;29.85;22.05;;;;;;;9.23;80.05;98516.17;128046;1098;100728;-83
2021/05/02 10:15:42;;;;;;;27.30;21.83;;;;;;;9.25;79.92;98515.16;128043;1097;100658;-83
2021/05/02 10:18:30;;;;;;;24.08;19.53;;;;;;;9.26;79.65;98511.64;128206;1098;100772;-84
2021/05/02 10:21:17;;;;;;;24.17;18.53;;;;;;;9.29;79.83;98495.02;128219;1098;100877;-83
2021/05/02 10:24:05;;;;;;;22.90;19.38;;;;;;;9.32;80.00;98489.64;128230;1098;100764;-85
2021/05/02 10:26:53;;;;;;;24.40;20.97;;;;;;;9.34;80.16;98482.63;128042;1098;100748;-85
2021/05/02 10:29:41;;;;;;;24.87;19.90;;;;;;;9.33;79.97;98502.56;128245;1098;100759;-85
2021/05/02 10:32:34;;;;;;;23.30;19.00;;;;;;;9.32;79.84;98505.25;128231;1098;101480;-84
2021/05/02 10:35:22;;;;;;;22.73;19.30;;;;;;;9.31;80.04;98503.58;128247;1098;100960;-83
2021/05/02 10:38:10;;;;;;;22.87;19.07;;;;;;;9.34;79.82;98493.87;128266;1098;100773;-84
2021/05/02 10:41:23;;;;;;;21.43;17.90;;;;;;;9.35;80.25;98492.11;128009;1099;100725;-83
2021/05/02 10:44:10;;;;;;;22.40;19.27;;;;;;;9.37;79.71;98500.66;128273;1098;100796;-84
2021/05/02 10:47:01;;;;;;;20.90;18.03;;;;;;;9.37;79.97;98511.07;128267;1098;101958;-85
2021/05/02 10:49:50;;;;;;;25.83;22.00;;;;;;;9.39;80.04;98506.61;128200;1098;100866;-83
2021/05/02 10:52:43;;;;;;;26.67;23.37;;;;;;;9.42;80.60;98500.40;128257;1098;101206;-83
2021/05/02 10:55:56;;;;;;;24.80;21.13;;;;;;;9.41;80.33;98494.36;128207;1098;100824;-83
2021/05/02 10:58:57;;;;;;;25.43;20.50;;;;;;;9.40;80.31;98479.67;128255;1098;101124;-84
2021/05/02 11:01:44;;;;;;;26.33;21.10;;;;;;;9.39;80.34;98485.80;128048;1099;102090;-84
2021/05/02 11:04:57;;;;;;;23.57;20.20;;;;;;;9.42;80.20;98467.41;128010;1098;101083;-84
2021/05/02 11:07:46;;;;;;;23.90;20.30;;;;;;;9.43;80.16;98468.25;128053;1098;101047;-84
2021/05/02 11:10:51;;;;;;;21.43;18.70;;;;;;;9.44;80.22;98455.16;128024;1098;100836;-84
2021/05/02 11:13:37;;;;;;;20.33;17.90;;;;;;;9.44;80.37;98452.55;128272;1098;100685;-83
2021/05/02 11:16:25;;;;;;;23.87;20.80;;;;;;;9.46;80.66;98445.49;128044;1100;100754;-83
2021/05/02 11:19:32;;;;;;;21.70;19.37;;;;;;;9.48;80.27;98453.20;127958;1098;100804;-85
2021/05/02 11:22:20;;;;;;;26.53;22.27;;;;;;;9.51;80.50;98437.42;128028;1098;100733;-84
2021/05/02 11:25:14;;;;;;;28.13;22.60;;;;;;;9.56;80.96;98430.21;128157;1098;100668;-84
2021/05/02 11:28:03;;;;;;;27.27;22.53;;;;;;;9.58;80.68;98417.95;128208;1098;100822;-84
2021/05/02 11:30:50;;;;;;;29.03;22.30;;;;;;;9.60;81.00;98403.91;127998;1098;102791;-84
2021/05/02 11:33:36;;;;;;;25.67;22.67;;;;;;;9.63;80.85;98390.72;127987;1098;100777;-84
2021/05/02 11:36:43;;;;;;;29.43;24.33;;;;;;;9.66;80.91;98392.30;128255;1098;100747;-84
2021/05/02 11:39:29;;;;;;;26.93;22.37;;;;;;;9.66;80.98;98385.33;127976;1098;100735;-84
2021/05/02 11:42:17;;;;;;;27.60;22.53;;;;;;;9.67;80.98;98373.16;128050;1098;100773;-84
2021/05/02 11:45:05;;;;;;;26.03;22.37;;;;;;;9.66;81.00;98369.72;128015;1098;101511;-84
2021/05/02 11:47:52;;;;;;;23.50;20.90;;;;;;;9.68;81.16;98370.46;128005;1098;101064;-84
2021/05/02 11:50:40;;;;;;;24.70;21.48;;;;;;;9.71;81.37;98360.83;128032;1098;100960;-84
2021/05/02 11:53:54;;;;;;;25.85;21.65;;;;;;;9.73;81.23;98351.16;127995;1098;100782;-84
2021/05/02 11:56:41;;;;;;;26.13;22.03;;;;;;;9.75;81.39;98342.33;127993;1098;100794;-84
2021/05/02 11:59:27;;;;;;;24.90;21.58;;;;;;;9.78;81.16;98334.33;128055;1098;101875;-84
2021/05/02 12:02:14;;;;;;;23.20;20.57;;;;;;;9.80;81.18;98326.42;128008;1097;100811;-84
2021/05/02 12:05:03;;;;;;;24.70;21.77;;;;;;;9.83;81.44;98319.26;128001;1098;100818;-84
2021/05/02 12:08:13;;;;;;;22.87;19.43;;;;;;;9.87;81.31;98317.30;128269;1097;100805;-84
2021/05/02 12:11:02;;;;;;;26.80;22.27;;;;;;;9.91;81.36;98313.61;128014;1098;101053;-84
2021/05/02 12:13:52;;;;;;;26.30;22.10;;;;;;;9.93;81.42;98294.36;128039;1098;101426;-84
2021/05/02 12:16:38;;;;;;;26.87;23.57;;;;;;;9.97;81.45;98290.63;127965;1098;101023;-84
2021/05/02 12:19:36;;;;;;;30.30;26.73;;;;;;;9.99;81.94;98282.72;128022;1098;100810;-84
2021/05/02 12:22:22;;;;;;;25.95;22.30;;;;;;;9.98;81.98;98287.09;128230;1098;100949;-83
2021/05/02 12:25:11;;;;;;;25.17;21.10;;;;;;;9.99;81.76;98303.55;128095;1098;100757;-84
2021/05/02 12:28:01;;;;;;;32.95;27.40;;;;;;;10.01;82.14;98288.67;127985;1098;100827;-84
2021/05/02 12:30:48;;;;;;;30.97;26.73;;;;;;;10.04;82.44;98262.44;127990;1098;100873;-84
2021/05/02 12:33:36;;;;;;;26.57;23.33;;;;;;;10.08;82.09;98270.92;128259;1098;100724;-84
2021/05/02 12:36:29;;;;;;;24.60;21.93;;;;;;;10.10;82.24;98275.09;127991;1098;100761;-84
2021/05/02 12:39:16;;;;;;;29.10;26.00;;;;;;;10.15;82.43;98267.83;128031;1098;100781;-84
2021/05/02 12:42:03;;;;;;;25.93;23.13;;;;;;;10.22;82.49;98253.52;127974;1098;101478;-84
2021/05/02 12:44:52;;;;;;;29.57;26.37;;;;;;;10.31;83.31;98246.07;127987;1098;101055;-84
2021/05/02 12:47:41;;;;;;;31.33;26.50;;;;;;;10.42;82.94;98243.64;128223;1098;100688;-84
2021/05/02 12:50:39;;;;;;;27.60;24.23;;;;;;;10.50;82.55;98241.37;128237;1098;100705;-84
2021/05/02 12:53:37;;;;;;;27.28;24.08;;;;;;;10.58;82.75;98234.72;128229;1098;101146;-84
2021/05/02 12:56:24;;;;;;;27.23;24.07;;;;;;;10.66;82.87;98229.03;128126;1098;101511;-84